createdAt,value
2018-09-19T00:02:02.044Z,100859.95
2018-09-19T00:04:31.861Z,100864.05
2018-09-19T00:07:02.002Z,100869.94
2018-09-19T00:09:31.872Z,100863.80
2018-09-19T00:12:01.747Z,100864.68
2018-09-19T00:14:31.923Z,100862.85
2018-09-19T00:17:01.695Z,100864.17
2018-09-19T00:19:31.643Z,100867.92
2018-09-19T00:22:01.753Z,100869.00
2018-09-19T00:24:31.562Z,100865.17
2018-09-19T00:27:01.514Z,100861.30
2018-09-19T00:29:31.536Z,100861.83
2018-09-19T00:32:01.680Z,100863.81
2018-09-19T00:34:31.492Z,100864.41
2018-09-19T00:37:01.492Z,100862.98
2018-09-19T00:39:31.404Z,100863.34
2018-09-19T00:42:01.388Z,100871.27
2018-09-19T00:44:31.404Z,100883.64
2018-09-19T00:47:01.107Z,100885.69
2018-09-19T00:49:31.148Z,100892.30
2018-09-19T00:52:01.204Z,100885.42
2018-09-19T00:54:31.073Z,100883.03
2018-09-19T00:57:00.949Z,100876.58
2018-09-19T00:59:30.793Z,100875.27
2018-09-19T01:02:00.583Z,100890.82
2018-09-19T01:04:30.548Z,100891.27
2018-09-19T01:07:00.309Z,100891.50
2018-09-19T01:09:29.977Z,100892.70
2018-09-19T01:11:59.673Z,100899.84
2018-09-19T01:14:29.714Z,100898.52
2018-09-19T01:16:59.793Z,100900.02
2018-09-19T01:19:29.578Z,100899.41
2018-09-19T01:21:59.407Z,100892.62
2018-09-19T01:24:29.220Z,100904.05
2018-09-19T01:26:59.317Z,100900.52
2018-09-19T01:29:29.271Z,100905.40
2018-09-19T01:31:59.273Z,100905.04
2018-09-19T01:34:29.359Z,100912.34
2018-09-19T01:36:59.149Z,100911.75
2018-09-19T01:39:29.212Z,100908.55
2018-09-19T01:41:59.245Z,100914.09
2018-09-19T01:44:28.976Z,100913.78
2018-09-19T01:46:58.753Z,100909.42
2018-09-19T01:49:28.891Z,100908.55
2018-09-19T01:51:58.860Z,100914.35
2018-09-19T01:54:28.692Z,100914.42
2018-09-19T01:56:58.489Z,100912.87
2018-09-19T01:59:28.514Z,100918.02
2018-09-19T02:01:58.279Z,100925.25
2018-09-19T02:04:28.363Z,100924.97
2018-09-19T02:06:58.433Z,100931.69
2018-09-19T02:09:28.358Z,100928.57
2018-09-19T02:11:58.260Z,100927.73
2018-09-19T02:14:28.112Z,100924.27
2018-09-19T02:16:58.189Z,100925.01
2018-09-19T02:19:28.311Z,100928.73
2018-09-19T02:21:58.432Z,100931.40
2018-09-19T02:24:28.386Z,100940.38
2018-09-19T02:26:58.110Z,100938.80
2018-09-19T02:29:28.139Z,100929.80
2018-09-19T02:31:58.274Z,100930.26
2018-09-19T02:34:28.136Z,100926.18
2018-09-19T02:36:57.941Z,100925.03
2018-09-19T02:39:27.760Z,100921.56
2018-09-19T02:41:57.775Z,100926.92
2018-09-19T02:44:27.982Z,100922.98
2018-09-19T02:46:57.771Z,100920.77
2018-09-19T02:49:27.934Z,100916.67
2018-09-19T02:51:59.163Z,100920.03
2018-09-19T02:54:30.850Z,100917.88
2018-09-19T02:57:00.684Z,100923.88
2018-09-19T02:59:30.784Z,100916.81
2018-09-19T03:02:00.615Z,100919.81
2018-09-19T03:04:30.442Z,100909.41
2018-09-19T03:07:00.465Z,100910.71
2018-09-19T03:09:30.306Z,100918.44
2018-09-19T03:12:00.392Z,100917.27
2018-09-19T03:14:30.182Z,100919.30
2018-09-19T03:17:00.233Z,100912.08
2018-09-19T03:19:30.109Z,100916.52
2018-09-19T03:22:00.089Z,100914.55
2018-09-19T03:24:29.989Z,100915.03
2018-09-19T03:26:59.966Z,100921.66
2018-09-19T03:29:29.755Z,100912.36
2018-09-19T03:31:59.657Z,100910.38
2018-09-19T03:34:29.557Z,100911.95
2018-09-19T03:36:59.370Z,100911.39
2018-09-19T03:39:29.240Z,100918.59
2018-09-19T03:41:59.263Z,100909.81
2018-09-19T03:44:29.320Z,100905.02
2018-09-19T03:47:00.195Z,100900.98
2018-09-19T03:49:30.311Z,100909.09
2018-09-19T03:52:00.250Z,100912.31
2018-09-19T03:54:30.101Z,100913.16
2018-09-19T03:57:00.101Z,100911.88
2018-09-19T03:59:30.523Z,100914.95
2018-09-19T04:02:00.331Z,100920.14
2018-09-19T04:04:30.807Z,100921.37
2018-09-19T04:07:00.946Z,100922.14
2018-09-19T04:09:30.952Z,100924.82
2018-09-19T04:12:01.043Z,100930.06
2018-09-19T04:14:30.980Z,100936.02
2018-09-19T04:17:00.859Z,100940.53
2018-09-19T04:19:30.804Z,100937.69
2018-09-19T04:22:00.679Z,100935.48
2018-09-19T04:24:30.601Z,100933.44
2018-09-19T04:27:00.709Z,100934.17
2018-09-19T04:29:30.831Z,100934.86
2018-09-19T04:32:00.619Z,100932.55
2018-09-19T04:34:30.463Z,100934.98
2018-09-19T04:37:00.297Z,100932.56
2018-09-19T04:39:31.017Z,100939.40
2018-09-19T04:42:01.052Z,100933.55
2018-09-19T04:44:31.001Z,100932.08
2018-09-19T04:47:00.810Z,100929.14
2018-09-19T04:49:30.720Z,100937.77
2018-09-19T04:52:00.547Z,100937.31
2018-09-19T04:54:30.568Z,100938.33
2018-09-19T04:57:00.504Z,100933.73
2018-09-19T04:59:30.306Z,100926.86
2018-09-19T05:02:00.425Z,100926.53
2018-09-19T05:04:30.472Z,100921.71
2018-09-19T05:07:00.345Z,100923.90
2018-09-19T05:09:30.243Z,100921.13
2018-09-19T05:12:00.146Z,100928.48
2018-09-19T05:14:30.533Z,100924.09
2018-09-19T05:17:00.385Z,100932.89
2018-09-19T05:19:30.477Z,100933.58
2018-09-19T05:22:00.490Z,100935.36
2018-09-19T05:24:30.426Z,100934.86
2018-09-19T05:27:00.616Z,100944.88
2018-09-19T05:29:30.384Z,100943.27
2018-09-19T05:32:00.192Z,100937.23
2018-09-19T05:34:29.958Z,100941.57
2018-09-19T05:36:59.836Z,100939.09
2018-09-19T05:39:29.805Z,100946.63
2018-09-19T05:41:59.669Z,100945.44
2018-09-19T05:44:29.552Z,100947.67
2018-09-19T05:46:59.383Z,100942.88
2018-09-19T05:49:29.387Z,100950.58
2018-09-19T05:51:59.247Z,100947.75
2018-09-19T05:54:29.377Z,100943.59
2018-09-19T05:56:59.274Z,100942.84
2018-09-19T05:59:29.261Z,100938.15
2018-09-19T06:01:59.132Z,100939.06
2018-09-19T06:04:29.122Z,100939.73
2018-09-19T06:06:59.527Z,100937.75
2018-09-19T06:09:29.415Z,100942.13
2018-09-19T06:11:59.249Z,100936.70
2018-09-19T06:14:29.542Z,100934.22
2018-09-19T06:16:59.609Z,100930.38
2018-09-19T06:19:30.091Z,100922.98
2018-09-19T06:22:00.045Z,100923.84
2018-09-19T06:24:30.441Z,100910.19
2018-09-19T06:27:00.587Z,100913.73
2018-09-19T06:29:30.567Z,100915.47
2018-09-19T06:32:00.377Z,100916.69
2018-09-19T06:34:30.616Z,100913.21
2018-09-19T06:37:00.525Z,100916.13
2018-09-19T06:39:30.871Z,100922.25
2018-09-19T06:42:00.671Z,100923.53
2018-09-19T06:44:30.637Z,100921.45
2018-09-19T06:47:00.816Z,100919.95
2018-09-19T06:49:30.649Z,100912.98
2018-09-19T06:52:02.531Z,100918.02
2018-09-19T06:54:32.312Z,100910.97
2018-09-19T06:57:02.362Z,100918.86
2018-09-19T06:59:32.450Z,100905.48
2018-09-19T07:02:02.430Z,100893.53
2018-09-19T07:04:32.275Z,100894.36
2018-09-19T07:07:02.177Z,100896.59
2018-09-19T07:09:32.169Z,100890.44
2018-09-19T07:12:02.088Z,100893.23
2018-09-19T07:14:32.190Z,100898.45
2018-09-19T07:17:02.140Z,100902.16
2018-09-19T07:19:32.013Z,100902.94
2018-09-19T07:22:02.076Z,100903.37
2018-09-19T07:24:31.987Z,100904.13
2018-09-19T07:27:01.713Z,100904.83
2018-09-19T07:29:31.719Z,100905.08
2018-09-19T07:32:01.680Z,100900.02
2018-09-19T07:34:31.636Z,100898.97
2018-09-19T07:37:01.385Z,100907.17
2018-09-19T07:39:32.743Z,100897.12
2018-09-19T07:42:02.654Z,100899.16
2018-09-19T07:44:32.641Z,100908.97
2018-09-19T07:47:02.583Z,100906.03
2018-09-19T07:49:32.425Z,100905.94
2018-09-19T07:52:02.371Z,100912.63
2018-09-19T07:54:32.308Z,100912.73
2018-09-19T07:57:02.167Z,100912.92
2018-09-19T07:59:31.963Z,100917.36
2018-09-19T08:02:01.922Z,100918.14
2018-09-19T08:04:31.971Z,100907.63
2018-09-19T08:07:01.718Z,100902.98
2018-09-19T08:09:31.498Z,100902.34
2018-09-19T08:12:01.300Z,100909.78
2018-09-19T08:14:31.361Z,100912.22
2018-09-19T08:17:01.213Z,100912.02
2018-09-19T08:19:31.239Z,100909.86
2018-09-19T08:22:01.016Z,100918.50
2018-09-19T08:24:30.857Z,100912.85
2018-09-19T08:27:00.755Z,100908.51
2018-09-19T08:29:30.580Z,100908.15
2018-09-19T08:32:00.330Z,100906.09
2018-09-19T08:34:30.072Z,100909.62
2018-09-19T08:37:00.250Z,100910.89
2018-09-19T08:39:33.515Z,100908.75
2018-09-19T08:42:14.798Z,100922.66
2018-09-19T08:44:44.715Z,100919.64
2018-09-19T08:47:14.572Z,100924.00
2018-09-19T08:49:44.465Z,100922.70
2018-09-19T08:52:14.525Z,100917.28
2018-09-19T08:54:44.495Z,100922.01
2018-09-19T08:57:14.656Z,100911.77
2018-09-19T08:59:44.489Z,100914.95
2018-09-19T09:02:14.287Z,100908.06
2018-09-19T09:04:44.534Z,100910.30
2018-09-19T09:07:14.337Z,100902.72
2018-09-19T09:09:44.118Z,100903.47
2018-09-19T09:12:14.209Z,100896.36
2018-09-19T09:14:44.116Z,100882.92
2018-09-19T09:17:14.467Z,100890.30
2018-09-19T09:19:44.423Z,100883.02
2018-09-19T09:22:14.348Z,100885.88
2018-09-19T09:24:44.368Z,100887.36
2018-09-19T09:27:14.227Z,100891.14
2018-09-19T09:29:44.328Z,100892.15
2018-09-19T09:34:44.256Z,100887.50
2018-09-19T09:37:14.020Z,100880.31
2018-09-19T09:39:44.579Z,100887.41
2018-09-19T09:42:14.706Z,100880.70
2018-09-19T09:44:44.676Z,100872.78
2018-09-19T09:47:14.773Z,100874.34
2018-09-19T09:49:44.551Z,100865.19
2018-09-19T09:52:14.479Z,100872.17
2018-09-19T09:54:44.432Z,100863.28
2018-09-19T09:57:14.287Z,100865.70
2018-09-19T09:59:44.223Z,100860.55
2018-09-19T10:02:14.189Z,100854.75
2018-09-19T10:04:44.220Z,100858.31
2018-09-19T10:07:14.206Z,100858.07
2018-09-19T10:09:44.063Z,100861.92
2018-09-19T10:12:13.843Z,100856.38
2018-09-19T10:14:43.523Z,100850.42
2018-09-19T10:17:13.484Z,100852.98
2018-09-19T10:19:43.340Z,100852.36
2018-09-19T10:22:13.312Z,100838.77
2018-09-19T10:24:43.075Z,100839.34
2018-09-19T10:27:12.939Z,100838.93
2018-09-19T10:29:42.985Z,100838.54
2018-09-19T10:32:13.031Z,100837.42
2018-09-19T10:34:42.765Z,100844.80
2018-09-19T10:37:12.947Z,100843.63
2018-09-19T10:39:42.802Z,100854.53
2018-09-19T10:42:14.177Z,100846.58
2018-09-19T10:44:44.042Z,100841.78
2018-09-19T10:47:14.073Z,100838.06
2018-09-19T10:49:43.991Z,100843.45
2018-09-19T10:52:14.107Z,100834.61
2018-09-19T10:54:44.316Z,100834.59
2018-09-19T10:57:14.189Z,100825.59
2018-09-19T10:59:44.068Z,100821.23
2018-09-19T11:02:14.055Z,100816.51
2018-09-19T11:04:44.062Z,100810.53
2018-09-19T11:07:13.976Z,100815.48
2018-09-19T11:09:44.691Z,100809.41
2018-09-19T11:12:14.476Z,100818.84
2018-09-19T11:14:47.274Z,100817.17
2018-09-19T11:17:17.319Z,100823.30
2018-09-19T11:19:47.143Z,100815.01
2018-09-19T11:22:17.014Z,100813.58
2018-09-19T11:24:47.459Z,100827.89
2018-09-19T11:27:17.366Z,100816.75
2018-09-19T11:29:47.547Z,100824.88
2018-09-19T11:32:17.527Z,100826.41
2018-09-19T11:34:47.343Z,100834.69
2018-09-19T11:37:17.223Z,100832.38
2018-09-19T11:39:47.049Z,100825.55
2018-09-19T11:42:17.019Z,100822.78
2018-09-19T11:44:47.149Z,100816.22
2018-09-19T11:47:17.127Z,100811.14
2018-09-19T11:49:47.221Z,100806.47
2018-09-19T11:52:17.064Z,100808.83
2018-09-19T11:54:47.171Z,100800.17
2018-09-19T11:57:17.153Z,100791.72
2018-09-19T11:59:47.206Z,100794.56
2018-09-19T12:02:17.134Z,100803.92
2018-09-19T12:04:47.772Z,100804.12
2018-09-19T12:07:17.754Z,100806.77
2018-09-19T12:09:47.716Z,100813.59
2018-09-19T12:12:17.651Z,100811.61
2018-09-19T12:14:47.618Z,100802.44
2018-09-19T12:17:17.400Z,100805.16
2018-09-19T12:19:47.314Z,100800.85
2018-09-19T12:22:17.234Z,100788.81
2018-09-19T12:24:52.596Z,100790.14
2018-09-19T12:27:22.321Z,100795.14
2018-09-19T12:29:52.213Z,100788.47
2018-09-19T12:32:21.925Z,100794.48
2018-09-19T12:34:51.961Z,100787.14
2018-09-19T12:37:21.978Z,100787.98
2018-09-19T12:39:51.749Z,100784.98
2018-09-19T12:42:21.562Z,100784.12
2018-09-19T12:44:51.723Z,100780.78
2018-09-19T12:47:21.563Z,100777.77
2018-09-19T12:49:51.737Z,100770.42
2018-09-19T12:52:21.557Z,100769.92
2018-09-19T12:54:51.534Z,100770.09
2018-09-19T12:57:21.350Z,100762.36
2018-09-19T12:59:51.149Z,100766.59
2018-09-19T13:02:21.799Z,100768.39
2018-09-19T13:04:52.795Z,100765.02
2018-09-19T13:07:22.690Z,100765.02
2018-09-19T13:09:52.586Z,100767.52
2018-09-19T13:12:23.720Z,100772.09
2018-09-19T13:14:53.612Z,100761.75
2018-09-19T13:17:23.536Z,100766.73
2018-09-19T13:19:53.607Z,100769.41
2018-09-19T13:22:23.723Z,100759.36
2018-09-19T13:24:53.719Z,100765.91
2018-09-19T13:27:24.266Z,100759.88
2018-09-19T13:29:54.451Z,100754.50
2018-09-19T13:32:24.601Z,100757.38
2018-09-19T13:34:54.549Z,100747.05
2018-09-19T13:37:24.445Z,100742.66
2018-09-19T13:39:56.891Z,100746.69
2018-09-19T13:42:28.340Z,100742.34
2018-09-19T13:44:59.012Z,100744.05
2018-09-19T13:47:29.081Z,100745.39
2018-09-19T13:50:41.865Z,100743.31
2018-09-19T13:53:11.995Z,100739.63
2018-09-19T13:55:47.143Z,100734.59
2018-09-19T13:58:18.312Z,100727.50
2018-09-19T14:00:48.789Z,100735.20
2018-09-19T14:03:18.922Z,100722.78
2018-09-19T14:05:49.836Z,100721.77
2018-09-19T14:11:30.785Z,100719.65
2018-09-19T14:14:00.969Z,100715.77
2018-09-19T14:16:33.969Z,100722.78
2018-09-19T14:19:04.828Z,100719.59
2018-09-19T14:21:36.651Z,100714.67
2018-09-19T14:24:06.609Z,100710.92
2018-09-19T14:26:36.781Z,100706.03
2018-09-19T14:29:06.931Z,100707.38
2018-09-19T14:31:36.917Z,100711.18
2018-09-19T14:34:06.898Z,100708.31
2018-09-19T14:36:37.148Z,100719.09
2018-09-19T14:39:09.060Z,100716.53
2018-09-19T14:41:39.196Z,100710.67
2018-09-19T14:44:09.195Z,100707.59
2018-09-19T14:46:39.358Z,100703.89
2018-09-19T14:49:09.425Z,100702.32
2018-09-19T14:51:39.394Z,100711.48
2018-09-19T14:54:09.550Z,100696.05
2018-09-19T14:56:39.579Z,100702.91
2018-09-19T14:59:09.463Z,100701.08
2018-09-19T15:01:39.404Z,100710.59
2018-09-19T15:04:09.372Z,100704.20
2018-09-19T15:06:39.265Z,100706.40
2018-09-19T15:09:11.173Z,100703.98
2018-09-19T15:11:41.265Z,100704.61
2018-09-19T15:14:11.190Z,100704.30
2018-09-19T15:16:41.515Z,100700.98
2018-09-19T15:19:11.391Z,100700.34
2018-09-19T15:21:41.539Z,100697.50
2018-09-19T15:24:11.620Z,100692.26
2018-09-19T15:26:41.663Z,100696.12
2018-09-19T15:29:11.565Z,100695.63
2018-09-19T15:31:41.475Z,100698.91
2018-09-19T15:34:11.789Z,100700.59
2018-09-19T15:36:45.942Z,100703.11
2018-09-19T15:39:15.958Z,100698.44
2018-09-19T15:41:46.102Z,100708.12
2018-09-19T15:44:16.090Z,100700.97
2018-09-19T15:46:45.954Z,100705.63
2018-09-19T15:49:16.201Z,100706.05
2018-09-19T15:51:46.632Z,100703.67
2018-09-19T15:54:17.071Z,100708.58
2018-09-19T15:56:47.285Z,100709.59
2018-09-19T15:59:17.704Z,100711.13
2018-09-19T16:01:48.308Z,100715.67
2018-09-19T16:04:18.366Z,100725.33
2018-09-19T16:06:48.345Z,100719.02
2018-09-19T16:09:18.294Z,100720.89
2018-09-19T16:11:48.872Z,100715.86
2018-09-19T16:14:18.883Z,100721.91
2018-09-19T16:16:48.920Z,100721.91
2018-09-19T16:19:18.983Z,100727.30
2018-09-19T16:21:49.273Z,100727.27
2018-09-19T16:24:19.305Z,100726.10
2018-09-19T16:26:49.284Z,100723.77
2018-09-19T16:29:19.689Z,100719.94
2018-09-19T16:31:49.683Z,100731.46
2018-09-19T16:34:19.631Z,100736.49
2018-09-19T16:36:49.619Z,100742.02
2018-09-19T16:39:19.611Z,100734.19
2018-09-19T16:41:49.722Z,100737.66
2018-09-19T16:47:20.736Z,100747.38
2018-09-19T16:49:50.658Z,100749.06
2018-09-19T16:52:20.584Z,100752.09
2018-09-19T16:54:50.815Z,100755.43
2018-09-19T16:57:21.032Z,100753.25
2018-09-19T16:59:51.393Z,100756.76
2018-09-19T17:02:27.664Z,100755.92
2018-09-19T17:04:58.411Z,100754.73
2018-09-19T17:07:28.594Z,100763.09
2018-09-19T17:09:58.515Z,100759.91
2018-09-19T17:12:28.388Z,100768.61
2018-09-19T17:14:58.312Z,100767.39
2018-09-19T17:17:28.244Z,100771.11
2018-09-19T17:19:58.237Z,100771.38
2018-09-19T17:22:28.176Z,100769.05
2018-09-19T17:24:58.192Z,100775.34
2018-09-19T17:27:28.384Z,100779.41
2018-09-19T17:29:58.575Z,100778.84
2018-09-19T17:32:28.713Z,100779.09
2018-09-19T17:34:58.985Z,100785.90
2018-09-19T17:37:29.872Z,100784.69
2018-09-19T17:40:00.390Z,100789.90
2018-09-19T17:42:30.624Z,100794.67
2018-09-19T17:45:00.672Z,100794.84
2018-09-19T17:47:30.754Z,100802.27
2018-09-19T17:50:00.807Z,100805.16
2018-09-19T17:52:30.831Z,100806.47
2018-09-19T17:55:00.823Z,100808.80
2018-09-19T17:57:30.839Z,100814.64
2018-09-19T18:00:00.985Z,100812.50
2018-09-19T18:02:31.044Z,100815.78
2018-09-19T18:05:00.995Z,100821.91
2018-09-19T18:07:31.300Z,100821.35
2018-09-19T18:10:01.188Z,100824.05
2018-09-19T18:12:31.173Z,100829.52
2018-09-19T18:15:01.155Z,100829.31
2018-09-19T18:17:31.260Z,100842.15
2018-09-19T18:20:01.235Z,100838.28
2018-09-19T18:22:31.331Z,100840.29
2018-09-19T18:25:01.335Z,100844.07
2018-09-19T18:27:31.379Z,100848.81
2018-09-19T18:30:02.451Z,100858.75
2018-09-19T18:32:32.597Z,100858.42
2018-09-19T18:35:02.605Z,100866.73
2018-09-19T18:37:32.596Z,100872.02
2018-09-19T18:40:03.254Z,100875.06
2018-09-19T18:42:33.238Z,100881.02
2018-09-19T18:45:03.216Z,100889.06
2018-09-19T18:47:33.204Z,100891.02
2018-09-19T18:50:03.219Z,100898.92
2018-09-19T18:52:33.325Z,100899.73
2018-09-19T18:55:17.513Z,100900.94
2018-09-19T18:57:47.692Z,100901.93
2018-09-19T19:00:17.815Z,100907.59
2018-09-19T19:02:48.816Z,100911.20
2018-09-19T19:05:18.937Z,100916.12
2018-09-19T19:07:49.503Z,100920.34
2018-09-19T19:10:19.807Z,100923.11
2018-09-19T19:12:49.859Z,100919.39
2018-09-19T19:15:20.308Z,100924.22
2018-09-19T19:17:51.576Z,100921.94
2018-09-19T19:20:29.594Z,100925.53
2018-09-19T19:23:12.268Z,100923.45
2018-09-19T19:28:59.152Z,100933.10
2018-09-19T19:31:29.316Z,100939.73
2018-09-19T19:34:01.638Z,100936.75
2018-09-19T19:40:12.453Z,100941.59
2018-09-19T19:42:42.633Z,100940.61
2018-09-19T19:45:15.344Z,100948.05
2018-09-19T19:51:20.716Z,100947.23
2018-09-19T19:53:51.054Z,100950.27
2018-09-19T19:56:21.191Z,100958.66
2018-09-19T19:58:51.399Z,100961.47
2018-09-19T20:04:34.006Z,100971.64
2018-09-19T20:07:04.632Z,100963.78
2018-09-19T20:12:25.423Z,100973.96
2018-09-19T20:14:55.871Z,100969.49
2018-09-19T20:17:46.328Z,100971.16
2018-09-19T20:23:20.315Z,100974.84
2018-09-19T20:25:50.212Z,100975.20
2018-09-19T20:28:20.409Z,100979.06
2018-09-19T20:30:50.442Z,100978.82
2018-09-19T20:33:20.475Z,100988.09
2018-09-19T20:35:51.245Z,100992.00
2018-09-19T20:38:21.296Z,100984.03
2018-09-19T20:40:51.417Z,100988.19
2018-09-19T20:43:22.723Z,100990.81
2018-09-19T20:45:58.984Z,100991.61
2018-09-19T20:48:40.445Z,100991.59
2018-09-19T20:51:13.718Z,101003.59
2018-09-19T20:53:44.904Z,101001.86
2018-09-19T21:02:36.989Z,101011.50
2018-09-19T21:05:08.163Z,101012.12
2018-09-19T21:07:38.631Z,101015.22
2018-09-19T21:13:02.033Z,101018.65
2018-09-19T21:15:32.509Z,101020.95
2018-09-19T21:18:07.916Z,101027.50
2018-09-19T21:20:38.027Z,101027.22
2018-09-19T21:23:09.241Z,101021.16
2018-09-19T21:25:45.910Z,101016.52
2018-09-19T21:28:17.446Z,101019.58
2018-09-19T21:31:00.689Z,101026.87
2018-09-19T21:33:30.801Z,101025.73
2018-09-19T21:36:02.489Z,101026.48
2018-09-19T21:41:44.083Z,101030.23
2018-09-19T21:44:23.553Z,101032.97
2018-09-19T21:46:56.113Z,101032.52
2018-09-19T21:49:26.335Z,101040.33
2018-09-19T21:51:56.481Z,101034.56
2018-09-19T21:54:26.713Z,101033.23
2018-09-19T21:56:56.899Z,101033.56
2018-09-19T21:59:26.873Z,101040.28
2018-09-19T22:01:59.540Z,101040.23
2018-09-19T22:04:29.724Z,101039.58
2018-09-19T22:06:59.779Z,101042.48
2018-09-19T22:09:29.781Z,101039.78
2018-09-19T22:11:59.884Z,101041.64
2018-09-19T22:14:29.899Z,101037.37
2018-09-19T22:17:00.012Z,101044.27
2018-09-19T22:19:30.251Z,101036.15
2018-09-19T22:22:00.191Z,101033.05
2018-09-19T22:24:30.179Z,101034.00
2018-09-19T22:27:00.319Z,101034.13
2018-09-19T22:29:30.487Z,101032.45
2018-09-19T22:32:00.661Z,101031.88
2018-09-19T22:34:30.743Z,101035.20
2018-09-19T22:37:00.714Z,101041.73
2018-09-19T22:39:31.717Z,101035.12
2018-09-19T22:42:01.868Z,101036.16
2018-09-19T22:44:31.916Z,101028.73
2018-09-19T22:49:30.949Z,101025.09
2018-09-19T22:52:00.968Z,101021.27
2018-09-19T22:54:31.266Z,101013.62
2018-09-19T22:57:01.385Z,101015.52
2018-09-19T22:59:31.453Z,101011.88
2018-09-19T23:02:01.610Z,101011.66
2018-09-19T23:04:31.524Z,101018.74
2018-09-19T23:07:01.504Z,101015.09
2018-09-19T23:09:31.468Z,101014.20
2018-09-19T23:12:01.579Z,101015.97
2018-09-19T23:14:31.688Z,101008.55
2018-09-19T23:17:01.812Z,101013.10
2018-09-19T23:19:31.851Z,101015.73
2018-09-19T23:22:02.123Z,101020.41
2018-09-19T23:24:32.398Z,101016.44
2018-09-19T23:27:02.378Z,101016.22
2018-09-19T23:29:32.538Z,101018.41
2018-09-19T23:32:02.384Z,101018.12
2018-09-19T23:34:32.513Z,101015.33
2018-09-19T23:37:02.935Z,101011.97
2018-09-19T23:39:33.110Z,101013.33
2018-09-19T23:42:03.093Z,101011.08
2018-09-19T23:44:33.082Z,101004.28
2018-09-19T23:47:03.063Z,101007.42
2018-09-19T23:49:33.186Z,101001.76
2018-09-19T23:52:03.748Z,101001.92
2018-09-19T23:54:33.724Z,100997.89
2018-09-19T23:57:03.855Z,100991.64
2018-09-19T23:59:33.941Z,100986.73
